Time;durP1;ratioP1;P1;durP2;ratioP2;P2;SDS_P1;SDS_P2;PMS_P1;PMS_P2;Temp;Humidity;BMP_temperature;BMP_pressure;BME280_temperature;BME280_humidity;BME280_pressure;Samples;Min_cycle;Max_cycle;Signal;HPM_P1;HPM_P2
2022/03/27 00:00:39;;;;;;;;;;;9.20;79.80;;;;;;5055184;28;20480;-84
2022/03/27 00:03:06;;;;;;;;;;;9.10;80.40;;;;;;5056679;28;20015;-84
2022/03/27 00:05:32;;;;;;;;;;;9.10;80.70;;;;;;5068482;28;20136;-82
2022/03/27 00:07:58;;;;;;;;;;;9.10;81.20;;;;;;5056699;28;19969;-83
2022/03/27 00:10:23;;;;;;;;;;;9.00;81.50;;;;;;5070492;28;20014;-83
2022/03/27 00:12:48;;;;;;;;;;;9.00;81.60;;;;;;5055976;28;19920;-83
2022/03/27 00:15:14;;;;;;;;;;;9.00;81.60;;;;;;5055077;28;19975;-83
2022/03/27 00:17:39;;;;;;;;;;;8.90;82.30;;;;;;5053718;28;20337;-83
2022/03/27 00:20:08;;;;;;;;;;;8.90;82.60;;;;;;5054189;28;20447;-82
2022/03/27 00:22:34;;;;;;;;;;;8.90;83.10;;;;;;5053484;28;19913;-82
2022/03/27 00:24:59;;;;;;;;;;;8.90;83.10;;;;;;5053720;28;19924;-83
2022/03/27 00:27:25;;;;;;;;;;;8.90;83.20;;;;;;5052461;28;20339;-83
2022/03/27 00:29:50;;;;;;;;;;;8.80;83.50;;;;;;5053948;28;19917;-83
2022/03/27 00:32:16;;;;;;;;;;;8.80;83.70;;;;;;5053804;28;19932;-83
2022/03/27 00:34:41;;;;;;;;;;;8.80;84.10;;;;;;5054945;28;19916;-83
2022/03/27 00:37:07;;;;;;;;;;;8.80;84.80;;;;;;5052263;28;19962;-83
2022/03/27 00:39:32;;;;;;;;;;;8.70;85.10;;;;;;5053415;28;19916;-83
2022/03/27 00:41:58;;;;;;;;;;;8.60;85.80;;;;;;5053336;28;19917;-82
2022/03/27 00:44:24;;;;;;;;;;;8.60;85.90;;;;;;5053707;28;19913;-82
2022/03/27 00:46:50;;;;;;;;;;;8.60;86.30;;;;;;5053850;28;20023;-83
2022/03/27 00:49:19;;;;;;;;;;;8.50;87.10;;;;;;5053595;28;19913;-82
2022/03/27 00:51:44;;;;;;;;;;;8.50;87.00;;;;;;5060029;28;19925;-83
2022/03/27 00:54:10;;;;;;;;;;;8.40;87.50;;;;;;5052737;28;19932;-82
2022/03/27 00:56:35;;;;;;;;;;;8.30;87.60;;;;;;5053769;28;19993;-83
2022/03/27 00:59:01;;;;;;;;;;;8.20;88.00;;;;;;5052467;28;19927;-82
2022/03/27 01:01:35;;;;;;;;;;;8.20;88.20;;;;;;5052826;28;19924;-83
2022/03/27 01:04:00;;;;;;;;;;;8.10;88.90;;;;;;5043696;28;19917;-82
2022/03/27 01:06:31;;;;;;;;;;;8.00;89.20;;;;;;5035402;28;19974;-83
2022/03/27 01:11:40;;;;;;;;;;;7.90;89.90;;;;;;5054050;28;19943;-82
2022/03/27 01:14:06;;;;;;;;;;;7.90;90.10;;;;;;5052804;28;20464;-83
2022/03/27 01:16:34;;;;;;;;;;;7.80;90.10;;;;;;5052306;28;19917;-83
2022/03/27 01:19:00;;;;;;;;;;;7.80;90.40;;;;;;5050370;28;19920;-83
2022/03/27 01:21:26;;;;;;;;;;;7.70;90.50;;;;;;5051280;28;19913;-83
2022/03/27 01:23:52;;;;;;;;;;;7.60;90.90;;;;;;5050905;28;20301;-83
2022/03/27 01:26:18;;;;;;;;;;;7.50;91.20;;;;;;5056591;28;19952;-82
2022/03/27 01:28:44;;;;;;;;;;;7.50;91.50;;;;;;5051734;28;19987;-83
2022/03/27 01:31:09;;;;;;;;;;;7.40;91.80;;;;;;5049971;28;19931;-82
2022/03/27 01:33:34;;;;;;;;;;;7.40;91.90;;;;;;5051667;28;19917;-82
2022/03/27 01:36:00;;;;;;;;;;;7.30;92.30;;;;;;5051090;28;20373;-83
2022/03/27 01:38:26;;;;;;;;;;;7.30;92.70;;;;;;5051544;28;19921;-82
2022/03/27 01:40:52;;;;;;;;;;;7.30;92.70;;;;;;5057347;28;20222;-82
2022/03/27 01:43:17;;;;;;;;;;;7.30;92.90;;;;;;5053074;28;19917;-82
2022/03/27 01:45:43;;;;;;;;;;;7.20;93.20;;;;;;5056574;28;19924;-83
2022/03/27 01:48:08;;;;;;;;;;;7.20;93.50;;;;;;5052557;28;20379;-83
2022/03/27 01:50:34;;;;;;;;;;;7.10;93.70;;;;;;5055694;28;19956;-83
2022/03/27 01:52:59;;;;;;;;;;;7.10;94.00;;;;;;5052406;28;19923;-82
2022/03/27 01:55:25;;;;;;;;;;;7.10;94.30;;;;;;5056294;28;20338;-82
2022/03/27 01:57:50;;;;;;;;;;;7.10;94.50;;;;;;5051534;28;19921;-83
2022/03/27 02:00:16;;;;;;;;;;;7.00;94.60;;;;;;5056250;28;19974;-82
2022/03/27 02:02:41;;;;;;;;;;;7.00;94.90;;;;;;5051933;28;19927;-82
2022/03/27 02:05:07;;;;;;;;;;;6.90;95.10;;;;;;5055843;28;20339;-82
2022/03/27 02:07:36;;;;;;;;;;;6.90;95.50;;;;;;5055779;28;20003;-82
2022/03/27 02:10:03;;;;;;;;;;;6.80;95.80;;;;;;5054160;28;19939;-82
2022/03/27 02:12:29;;;;;;;;;;;6.80;95.90;;;;;;5055815;28;20140;-83
2022/03/27 02:14:56;;;;;;;;;;;6.70;96.00;;;;;;5052008;28;19929;-81
2022/03/27 02:17:21;;;;;;;;;;;6.70;96.40;;;;;;5053589;28;20378;-82
2022/03/27 02:19:47;;;;;;;;;;;6.70;96.70;;;;;;5051229;28;19917;-83
2022/03/27 02:22:12;;;;;;;;;;;6.60;96.70;;;;;;5058594;28;19917;-82
2022/03/27 02:24:38;;;;;;;;;;;6.60;97.00;;;;;;5051696;28;19917;-82
2022/03/27 02:27:04;;;;;;;;;;;6.60;97.10;;;;;;5054239;28;20288;-82
2022/03/27 02:29:30;;;;;;;;;;;6.60;97.20;;;;;;5052799;28;19920;-83
2022/03/27 02:31:55;;;;;;;;;;;6.50;97.40;;;;;;5053739;28;20007;-82
2022/03/27 02:34:21;;;;;;;;;;;6.50;97.60;;;;;;5052686;28;19921;-82
2022/03/27 02:36:47;;;;;;;;;;;6.50;97.60;;;;;;5052509;28;19921;-83
2022/03/27 02:39:12;;;;;;;;;;;6.40;98.10;;;;;;5052250;28;19921;-83
2022/03/27 02:41:37;;;;;;;;;;;6.40;98.10;;;;;;5035244;28;19925;-83
2022/03/27 02:44:03;;;;;;;;;;;6.40;98.30;;;;;;5054067;28;19923;-83
2022/03/27 02:46:28;;;;;;;;;;;6.30;98.60;;;;;;5054209;28;19924;-83
2022/03/27 02:48:54;;;;;;;;;;;6.20;98.80;;;;;;5053415;28;19978;-83
2022/03/27 02:51:19;;;;;;;;;;;6.20;99.20;;;;;;5053744;28;19923;-83
2022/03/27 02:53:45;;;;;;;;;;;6.20;99.60;;;;;;5050911;28;19929;-83
2022/03/27 02:56:10;;;;;;;;;;;6.20;99.90;;;;;;5060821;28;19917;-83
2022/03/27 02:58:36;;;;;;;;;;;6.20;99.90;;;;;;5053133;28;19917;-83
2022/03/27 03:01:02;;;;;;;;;;;6.20;99.90;;;;;;5062006;28;20372;-83
2022/03/27 03:03:28;;;;;;;;;;;6.10;99.90;;;;;;5054361;28;19920;-83
2022/03/27 03:05:54;;;;;;;;;;;6.10;99.90;;;;;;5053753;28;19932;-83
2022/03/27 03:08:19;;;;;;;;;;;6.10;99.90;;;;;;5054494;28;20444;-84
2022/03/27 03:10:45;;;;;;;;;;;6.10;99.90;;;;;;5058442;28;19916;-83
2022/03/27 03:13:10;;;;;;;;;;;6.10;99.90;;;;;;5065878;28;19917;-84
2022/03/27 03:15:41;;;;;;;;;;;6.10;99.90;;;;;;5062870;28;20231;-83
2022/03/27 03:18:08;;;;;;;;;;;6.20;99.90;;;;;;5047186;28;19913;-84
2022/03/27 03:20:34;;;;;;;;;;;6.20;99.90;;;;;;5057075;28;20421;-84
2022/03/27 03:23:00;;;;;;;;;;;6.20;99.90;;;;;;5056795;28;19970;-83
2022/03/27 03:25:25;;;;;;;;;;;6.20;99.90;;;;;;5045723;28;20484;-84
2022/03/27 03:27:51;;;;;;;;;;;6.10;99.90;;;;;;5060736;28;20400;-84
2022/03/27 03:30:17;;;;;;;;;;;6.10;99.90;;;;;;5057833;28;19932;-84
2022/03/27 03:32:42;;;;;;;;;;;6.10;99.90;;;;;;5060900;28;19909;-83
2022/03/27 03:35:08;;;;;;;;;;;6.10;99.90;;;;;;5065535;28;19920;-84
2022/03/27 03:37:34;;;;;;;;;;;6.10;99.90;;;;;;5061371;28;19928;-84
2022/03/27 03:39:59;;;;;;;;;;;6.10;99.90;;;;;;5059146;28;19920;-83
2022/03/27 03:42:25;;;;;;;;;;;6.10;99.90;;;;;;5061181;28;19920;-84
2022/03/27 03:44:51;;;;;;;;;;;6.10;99.90;;;;;;5064725;28;19935;-84
2022/03/27 03:47:16;;;;;;;;;;;6.10;99.90;;;;;;5062057;28;20292;-84
2022/03/27 03:49:42;;;;;;;;;;;6.00;99.90;;;;;;5059970;28;19974;-84
2022/03/27 03:52:07;;;;;;;;;;;5.90;99.90;;;;;;5062332;28;19917;-84
2022/03/27 03:54:34;;;;;;;;;;;5.80;99.90;;;;;;5068986;28;19917;-83
2022/03/27 03:57:01;;;;;;;;;;;5.70;99.90;;;;;;5063487;28;19992;-84
2022/03/27 03:59:28;;;;;;;;;;;5.60;99.90;;;;;;5062037;28;19963;-84
2022/03/27 04:01:53;;;;;;;;;;;5.50;99.90;;;;;;5061941;28;20393;-83
2022/03/27 04:04:19;;;;;;;;;;;5.50;99.90;;;;;;5077645;28;19912;-83
2022/03/27 04:06:44;;;;;;;;;;;5.40;99.90;;;;;;5069199;28;19962;-83
2022/03/27 04:09:10;;;;;;;;;;;5.40;99.90;;;;;;5070979;28;19920;-84
2022/03/27 04:11:35;;;;;;;;;;;5.40;99.90;;;;;;5054097;28;19932;-84
2022/03/27 04:14:01;;;;;;;;;;;5.30;99.90;;;;;;5052257;28;19924;-84
2022/03/27 04:16:26;;;;;;;;;;;5.30;99.90;;;;;;5051994;28;19917;-83
2022/03/27 04:18:52;;;;;;;;;;;5.30;99.90;;;;;;5054674;28;19920;-83
2022/03/27 04:21:17;;;;;;;;;;;5.40;99.90;;;;;;5055909;28;19963;-83
2022/03/27 04:23:43;;;;;;;;;;;5.40;99.90;;;;;;5051358;28;19963;-82
2022/03/27 04:26:08;;;;;;;;;;;5.40;99.90;;;;;;5053728;28;19928;-83
2022/03/27 04:28:34;;;;;;;;;;;5.40;99.90;;;;;;5034616;28;19922;-83
2022/03/27 04:30:59;;;;;;;;;;;5.40;99.90;;;;;;5052880;28;20262;-83
2022/03/27 04:33:25;;;;;;;;;;;5.40;99.90;;;;;;5053116;28;20011;-83
2022/03/27 04:35:50;;;;;;;;;;;5.40;99.90;;;;;;5053874;28;20361;-83
2022/03/27 04:38:16;;;;;;;;;;;5.30;99.90;;;;;;5052152;28;19956;-83
2022/03/27 04:40:42;;;;;;;;;;;5.40;99.90;;;;;;5057193;28;19970;-83
2022/03/27 04:43:08;;;;;;;;;;;5.30;99.90;;;;;;5052677;28;19921;-83
2022/03/27 04:45:34;;;;;;;;;;;5.30;99.90;;;;;;5051941;28;19921;-83
2022/03/27 04:48:00;;;;;;;;;;;5.30;99.90;;;;;;5053458;28;20445;-83
2022/03/27 04:50:25;;;;;;;;;;;5.30;99.90;;;;;;5056869;28;19921;-83
2022/03/27 04:52:51;;;;;;;;;;;5.30;99.90;;;;;;5052098;28;19984;-84
2022/03/27 04:55:16;;;;;;;;;;;5.30;99.90;;;;;;5057159;28;19927;-83
2022/03/27 04:57:42;;;;;;;;;;;5.30;99.90;;;;;;5058215;28;20377;-83
2022/03/27 05:00:12;;;;;;;;;;;5.30;99.90;;;;;;5051649;28;19917;-83
2022/03/27 05:02:38;;;;;;;;;;;5.30;99.90;;;;;;5053091;28;20022;-83
2022/03/27 05:05:04;;;;;;;;;;;5.40;99.90;;;;;;5053566;28;20277;-82
2022/03/27 05:07:30;;;;;;;;;;;5.40;99.90;;;;;;5057685;28;19966;-83
2022/03/27 05:09:55;;;;;;;;;;;5.50;99.90;;;;;;5054183;28;20353;-83
2022/03/27 05:12:21;;;;;;;;;;;5.60;99.90;;;;;;5056858;28;19963;-83
2022/03/27 05:14:46;;;;;;;;;;;5.60;99.90;;;;;;5055015;28;20296;-83
2022/03/27 05:17:12;;;;;;;;;;;5.60;99.90;;;;;;5055632;28;19916;-83
2022/03/27 05:19:37;;;;;;;;;;;5.60;99.90;;;;;;5056044;28;19912;-83
2022/03/27 05:22:03;;;;;;;;;;;5.60;99.90;;;;;;5053789;28;20290;-83
2022/03/27 05:24:29;;;;;;;;;;;5.70;99.90;;;;;;5054805;28;19943;-83
2022/03/27 05:26:54;;;;;;;;;;;5.70;99.90;;;;;;5053373;28;19921;-83
2022/03/27 05:29:21;;;;;;;;;;;5.70;99.90;;;;;;5052645;28;19974;-84
2022/03/27 05:31:46;;;;;;;;;;;5.70;99.90;;;;;;5054157;28;19924;-83
2022/03/27 05:34:12;;;;;;;;;;;5.70;99.90;;;;;;5052573;28;20007;-85
2022/03/27 05:36:37;;;;;;;;;;;5.70;99.90;;;;;;5054187;28;19928;-83
2022/03/27 05:39:03;;;;;;;;;;;5.70;99.90;;;;;;5053046;28;19966;-82
2022/03/27 05:41:28;;;;;;;;;;;5.70;99.90;;;;;;5052221;28;20011;-82
2022/03/27 05:43:54;;;;;;;;;;;5.80;99.90;;;;;;5057070;28;20391;-82
2022/03/27 05:46:19;;;;;;;;;;;5.80;99.90;;;;;;5051043;28;19917;-83
2022/03/27 05:48:45;;;;;;;;;;;5.80;99.90;;;;;;5034744;28;19921;-82
2022/03/27 05:51:10;;;;;;;;;;;5.80;99.90;;;;;;5054266;28;20000;-83
2022/03/27 05:53:36;;;;;;;;;;;5.90;99.90;;;;;;5053345;28;19925;-82
2022/03/27 05:56:01;;;;;;;;;;;5.80;99.90;;;;;;5055283;28;19917;-82
2022/03/27 05:58:27;;;;;;;;;;;5.70;99.90;;;;;;5053184;28;20393;-82
2022/03/27 06:00:53;;;;;;;;;;;5.70;99.90;;;;;;5053307;28;20395;-82
2022/03/27 06:03:18;;;;;;;;;;;5.70;99.90;;;;;;5059334;28;20019;-83
2022/03/27 06:05:44;;;;;;;;;;;5.70;99.90;;;;;;5051516;28;19924;-82
2022/03/27 06:08:09;;;;;;;;;;;5.70;99.90;;;;;;5052996;28;20424;-82
2022/03/27 06:10:35;;;;;;;;;;;5.70;99.90;;;;;;5054151;28;20015;-82
2022/03/27 06:13:02;;;;;;;;;;;5.70;99.90;;;;;;5055394;28;19963;-83
2022/03/27 06:15:27;;;;;;;;;;;5.80;99.90;;;;;;5051887;28;20215;-82
2022/03/27 06:17:54;;;;;;;;;;;5.80;99.90;;;;;;5053316;28;19923;-83
2022/03/27 06:20:23;;;;;;;;;;;5.90;99.90;;;;;;5060178;28;20389;-80
2022/03/27 06:22:49;;;;;;;;;;;6.00;99.90;;;;;;5056370;28;20365;-82
2022/03/27 06:25:16;;;;;;;;;;;6.10;99.90;;;;;;5051894;28;19916;-82
2022/03/27 06:27:42;;;;;;;;;;;6.20;99.90;;;;;;5050740;28;20722;-81
2022/03/27 06:30:08;;;;;;;;;;;6.20;99.90;;;;;;5049109;28;19920;-81
2022/03/27 06:32:34;;;;;;;;;;;6.30;99.90;;;;;;5052906;28;20365;-82
2022/03/27 06:35:00;;;;;;;;;;;6.40;99.90;;;;;;5052517;28;19925;-82
2022/03/27 06:37:26;;;;;;;;;;;6.50;99.90;;;;;;5056644;28;19913;-83
2022/03/27 06:39:52;;;;;;;;;;;6.60;99.90;;;;;;5048495;28;19917;-81
2022/03/27 06:42:18;;;;;;;;;;;6.80;99.90;;;;;;5047885;28;19960;-82
2022/03/27 06:44:43;;;;;;;;;;;6.90;99.90;;;;;;5050756;28;19955;-83
2022/03/27 06:47:09;;;;;;;;;;;7.00;99.90;;;;;;5050345;28;19928;-81
2022/03/27 06:52:03;;;;;;;;;;;7.30;99.90;;;;;;5028174;28;19978;-80
2022/03/27 06:54:29;;;;;;;;;;;7.40;99.90;;;;;;5042676;28;19918;-81
2022/03/27 06:56:55;;;;;;;;;;;7.50;99.90;;;;;;5045765;28;20272;-83
2022/03/27 06:59:20;;;;;;;;;;;7.60;99.90;;;;;;5016855;28;20338;-82
2022/03/27 07:04:30;;;;;;;;;;;7.80;99.90;;;;;;5033900;28;20414;-82
2022/03/27 07:06:55;;;;;;;;;;;7.80;99.90;;;;;;5013538;28;19961;-82
2022/03/27 07:09:21;;;;;;;;;;;7.90;99.90;;;;;;5015732;28;19940;-82
2022/03/27 07:11:47;;;;;;;;;;;8.00;99.90;;;;;;5032421;28;20043;-82
2022/03/27 07:14:13;;;;;;;;;;;8.10;99.90;;;;;;5031820;28;19963;-82
2022/03/27 07:16:40;;;;;;;;;;;8.20;99.90;;;;;;5048587;28;19921;-82
2022/03/27 07:19:05;;;;;;;;;;;8.30;99.90;;;;;;5034570;28;20379;-82
2022/03/27 07:21:31;;;;;;;;;;;8.40;99.90;;;;;;5033825;28;19969;-82
2022/03/27 07:23:58;;;;;;;;;;;8.50;99.90;;;;;;5017743;28;19916;-82
2022/03/27 07:26:23;;;;;;;;;;;8.50;99.90;;;;;;5019611;28;19927;-80
2022/03/27 07:28:49;;;;;;;;;;;8.70;99.90;;;;;;5031270;28;19913;-80
2022/03/27 07:31:15;;;;;;;;;;;8.70;99.90;;;;;;5013587;28;19925;-79
2022/03/27 07:33:41;;;;;;;;;;;8.80;99.90;;;;;;5013404;28;19925;-79
2022/03/27 07:36:07;;;;;;;;;;;8.90;99.90;;;;;;5021611;28;20006;-79
2022/03/27 07:38:32;;;;;;;;;;;9.00;99.90;;;;;;5013408;28;20385;-80
2022/03/27 07:40:59;;;;;;;;;;;9.20;99.90;;;;;;5031211;28;20067;-79
2022/03/27 07:43:25;;;;;;;;;;;9.30;99.90;;;;;;5013708;28;19971;-79
2022/03/27 07:45:50;;;;;;;;;;;9.40;99.20;;;;;;5029405;28;19913;-79
2022/03/27 07:48:16;;;;;;;;;;;9.50;98.50;;;;;;5029389;28;19917;-79
2022/03/27 07:50:41;;;;;;;;;;;9.60;98.40;;;;;;5029537;28;19917;-80
2022/03/27 07:53:07;;;;;;;;;;;9.70;97.70;;;;;;5032399;28;19921;-79
2022/03/27 07:55:33;;;;;;;;;;;9.80;97.70;;;;;;5031567;28;19971;-79
2022/03/27 07:57:59;;;;;;;;;;;10.00;97.70;;;;;;5014515;28;19921;-79
2022/03/27 08:00:27;;;;;;;;;;;10.10;96.60;;;;;;5030751;28;20376;-79
2022/03/27 08:02:53;;;;;;;;;;;10.20;97.00;;;;;;5023731;28;19979;-80
2022/03/27 08:05:18;;;;;;;;;;;10.40;96.80;;;;;;5015218;28;19921;-79
2022/03/27 08:07:45;;;;;;;;;;;10.40;95.90;;;;;;5013083;28;19924;-80
2022/03/27 08:10:13;;;;;;;;;;;10.60;95.80;;;;;;5012488;28;19925;-80
2022/03/27 08:12:38;;;;;;;;;;;10.70;97.00;;;;;;5020289;28;19952;-80
2022/03/27 08:15:04;;;;;;;;;;;10.90;95.60;;;;;;5031795;28;19921;-80
2022/03/27 08:17:30;;;;;;;;;;;11.00;94.20;;;;;;5015991;28;19917;-80
2022/03/27 08:19:56;;;;;;;;;;;11.10;94.10;;;;;;5031835;28;19966;-80
2022/03/27 08:22:24;;;;;;;;;;;11.40;93.70;;;;;;5021085;28;19917;-81
2022/03/27 08:24:49;;;;;;;;;;;11.50;92.60;;;;;;5031663;28;19999;-81
2022/03/27 08:27:15;;;;;;;;;;;11.60;92.30;;;;;;5038322;28;19960;-81
2022/03/27 08:29:42;;;;;;;;;;;11.70;92.30;;;;;;5031172;28;20330;-81
2022/03/27 08:32:08;;;;;;;;;;;11.90;92.90;;;;;;5015771;28;19927;-81
2022/03/27 08:34:34;;;;;;;;;;;12.00;90.60;;;;;;5035516;28;19917;-80
2022/03/27 08:37:01;;;;;;;;;;;12.10;91.30;;;;;;5015594;28;19928;-80
2022/03/27 08:39:27;;;;;;;;;;;12.20;90.50;;;;;;5032040;28;19917;-80
2022/03/27 08:41:54;;;;;;;;;;;12.40;90.00;;;;;;5017698;28;19975;-81
2022/03/27 08:44:20;;;;;;;;;;;12.50;86.70;;;;;;5031581;28;19913;-81
2022/03/27 08:46:47;;;;;;;;;;;12.60;84.50;;;;;;5015210;28;19928;-80
2022/03/27 08:49:33;;;;;;;;;;;12.60;84.80;;;;;;5035624;28;19912;-81
2022/03/27 08:52:10;;;;;;;;;;;12.70;83.00;;;;;;5036801;28;20349;-80
2022/03/27 08:54:40;;;;;;;;;;;12.80;84.00;;;;;;5016313;28;20291;-80
2022/03/27 08:57:09;;;;;;;;;;;12.80;80.90;;;;;;5042173;28;19913;-80
2022/03/27 08:59:36;;;;;;;;;;;12.90;81.80;;;;;;5014788;28;19925;-80
2022/03/27 09:02:02;;;;;;;;;;;13.00;81.60;;;;;;5014138;28;19917;-80
2022/03/27 09:04:28;;;;;;;;;;;13.10;82.60;;;;;;5015471;28;19967;-80
2022/03/27 09:06:54;;;;;;;;;;;13.20;76.60;;;;;;5015034;28;19925;-81
2022/03/27 09:09:20;;;;;;;;;;;13.30;72.20;;;;;;5016456;28;20023;-81
2022/03/27 09:11:45;;;;;;;;;;;13.30;74.60;;;;;;5015055;28;20410;-81
2022/03/27 09:14:14;;;;;;;;;;;13.40;74.20;;;;;;5035089;28;19921;-81
2022/03/27 09:16:58;;;;;;;;;;;13.50;71.30;;;;;;5041325;28;19924;-80
2022/03/27 09:19:36;;;;;;;;;;;13.50;72.70;;;;;;5032218;28;19921;-81
2022/03/27 09:22:11;;;;;;;;;;;13.50;70.30;;;;;;5031643;28;19913;-81
2022/03/27 09:24:38;;;;;;;;;;;13.60;70.80;;;;;;5053268;28;19979;-81
2022/03/27 09:27:05;;;;;;;;;;;13.70;70.20;;;;;;5037043;28;19916;-81
2022/03/27 09:29:50;;;;;;;;;;;13.70;68.50;;;;;;5032704;28;19928;-80
2022/03/27 09:32:29;;;;;;;;;;;13.80;66.40;;;;;;5032860;28;20011;-80
2022/03/27 09:34:58;;;;;;;;;;;13.80;69.00;;;;;;5049260;28;19971;-80
2022/03/27 09:37:28;;;;;;;;;;;13.90;67.00;;;;;;5032207;28;19919;-80
2022/03/27 09:39:55;;;;;;;;;;;14.00;66.10;;;;;;5032396;28;19923;-80
2022/03/27 09:42:20;;;;;;;;;;;14.10;65.00;;;;;;5023037;28;19952;-80
2022/03/27 09:44:46;;;;;;;;;;;14.10;64.00;;;;;;5019782;28;19928;-80
2022/03/27 09:47:11;;;;;;;;;;;14.20;64.90;;;;;;5017968;28;19921;-80
2022/03/27 09:49:40;;;;;;;;;;;14.20;64.50;;;;;;5032835;28;19921;-79
2022/03/27 09:52:16;;;;;;;;;;;14.30;63.50;;;;;;5034586;28;19971;-80
2022/03/27 09:55:00;;;;;;;;;;;14.40;62.20;;;;;;5034685;28;19917;-80
2022/03/27 09:57:34;;;;;;;;;;;14.40;58.70;;;;;;5051645;28;20364;-79
2022/03/27 10:00:13;;;;;;;;;;;14.50;59.00;;;;;;5034593;28;19925;-79
2022/03/27 10:02:43;;;;;;;;;;;14.60;59.60;;;;;;5017936;28;20292;-80
2022/03/27 10:05:12;;;;;;;;;;;14.70;59.20;;;;;;5035900;28;19956;-81
2022/03/27 10:07:42;;;;;;;;;;;14.80;58.60;;;;;;5017933;28;19928;-80
2022/03/27 10:10:12;;;;;;;;;;;14.80;59.20;;;;;;5019246;28;20023;-79
2022/03/27 10:12:38;;;;;;;;;;;14.90;58.70;;;;;;5035929;28;19924;-80
2022/03/27 10:15:06;;;;;;;;;;;15.00;59.40;;;;;;5019245;28;19925;-80
2022/03/27 10:17:32;;;;;;;;;;;15.10;58.40;;;;;;5020345;28;19918;-80
2022/03/27 10:20:33;;;;;;;;;;;15.20;59.90;;;;;;5036578;28;19929;-79
2022/03/27 10:23:07;;;;;;;;;;;15.40;57.80;;;;;;4966049;28;19914;-79
2022/03/27 10:25:45;;;;;;;;;;;15.50;55.90;;;;;;5039637;28;20063;-80
2022/03/27 10:28:11;;;;;;;;;;;15.60;54.80;;;;;;5019552;28;19924;-79
2022/03/27 10:30:38;;;;;;;;;;;15.60;53.80;;;;;;5037984;28;19913;-80
2022/03/27 10:33:04;;;;;;;;;;;15.60;54.10;;;;;;5038205;28;20507;-79
2022/03/27 10:35:59;;;;;;;;;;;15.70;54.30;;;;;;5051239;28;19917;-79
2022/03/27 10:38:38;;;;;;;;;;;15.80;54.50;;;;;;5022966;28;19921;-78
2022/03/27 10:41:20;;;;;;;;;;;15.90;52.80;;;;;;5034316;28;19920;-80
2022/03/27 10:43:50;;;;;;;;;;;16.00;54.00;;;;;;5025503;28;19920;-80
2022/03/27 10:46:21;;;;;;;;;;;16.00;53.70;;;;;;5035666;28;19975;-80
2022/03/27 10:48:48;;;;;;;;;;;16.10;52.00;;;;;;5034872;28;20011;-80
2022/03/27 10:51:26;;;;;;;;;;;16.20;52.30;;;;;;5012436;28;19929;-81
2022/03/27 10:54:05;;;;;;;;;;;16.20;53.80;;;;;;5046033;28;19924;-81
2022/03/27 10:56:36;;;;;;;;;;;16.30;53.20;;;;;;5029314;28;19913;-81
2022/03/27 10:59:21;;;;;;;;;;;16.40;54.10;;;;;;5029823;28;19940;-81
2022/03/27 11:01:58;;;;;;;;;;;16.50;51.00;;;;;;5029382;28;20343;-81
2022/03/27 11:04:41;;;;;;;;;;;16.60;50.70;;;;;;5013377;28;19935;-81
2022/03/27 11:07:16;;;;;;;;;;;16.60;52.10;;;;;;5029531;28;19913;-81
2022/03/27 11:09:44;;;;;;;;;;;16.60;50.80;;;;;;5029535;28;19909;-81
2022/03/27 11:12:16;;;;;;;;;;;16.70;51.50;;;;;;5013550;28;19913;-81
2022/03/27 11:14:54;;;;;;;;;;;16.70;50.30;;;;;;5029432;28;19913;-81
2022/03/27 11:17:30;;;;;;;;;;;16.80;51.10;;;;;;5029175;28;19984;-81
2022/03/27 11:19:56;;;;;;;;;;;16.80;49.20;;;;;;5029239;28;20419;-81
2022/03/27 11:22:40;;;;;;;;;;;17.00;49.70;;;;;;5013045;28;19963;-81
2022/03/27 11:25:24;;;;;;;;;;;16.90;51.30;;;;;;5029527;28;19956;-81
2022/03/27 11:27:57;;;;;;;;;;;17.00;49.30;;;;;;5029290;28;19920;-81
2022/03/27 11:30:23;;;;;;;;;;;17.00;50.70;;;;;;5012916;28;19913;-81
2022/03/27 11:33:07;;;;;;;;;;;17.10;49.30;;;;;;5012892;28;19917;-81
2022/03/27 11:35:33;;;;;;;;;;;17.10;49.90;;;;;;5029366;28;19920;-81
2022/03/27 11:38:17;;;;;;;;;;;17.10;48.30;;;;;;5012672;28;19913;-81
2022/03/27 11:40:43;;;;;;;;;;;17.30;50.30;;;;;;5029256;28;19909;-81
2022/03/27 11:43:28;;;;;;;;;;;17.30;48.20;;;;;;5029390;28;20303;-81
2022/03/27 11:45:54;;;;;;;;;;;17.30;47.60;;;;;;5030873;28;19917;-82
2022/03/27 11:48:20;;;;;;;;;;;17.40;47.90;;;;;;5016519;28;19917;-81
2022/03/27 11:50:45;;;;;;;;;;;17.40;47.00;;;;;;5016501;28;20437;-81
2022/03/27 11:53:12;;;;;;;;;;;17.40;46.50;;;;;;5016354;28;20000;-81
2022/03/27 11:55:39;;;;;;;;;;;17.40;45.80;;;;;;5016450;28;20020;-81
2022/03/27 11:58:05;;;;;;;;;;;17.50;47.30;;;;;;5016473;28;19913;-81
2022/03/27 12:00:35;;;;;;;;;;;17.50;46.10;;;;;;5032974;28;19916;-81
2022/03/27 12:03:02;;;;;;;;;;;17.60;47.30;;;;;;5016115;28;19917;-81
2022/03/27 12:05:38;;;;;;;;;;;17.60;48.40;;;;;;5016307;28;19917;-81
2022/03/27 12:08:04;;;;;;;;;;;17.60;44.80;;;;;;5016163;28;19917;-81
2022/03/27 12:10:38;;;;;;;;;;;17.60;45.30;;;;;;5016275;28;19967;-81
2022/03/27 12:13:05;;;;;;;;;;;17.70;45.80;;;;;;5032671;28;19909;-81
2022/03/27 12:15:41;;;;;;;;;;;17.70;46.70;;;;;;5016264;28;19918;-81
2022/03/27 12:18:06;;;;;;;;;;;17.60;44.10;;;;;;5032343;28;20287;-81
2022/03/27 12:20:46;;;;;;;;;;;17.70;45.80;;;;;;5032515;28;19970;-81
2022/03/27 12:23:18;;;;;;;;;;;17.80;45.50;;;;;;5032776;28;20279;-81
2022/03/27 12:25:43;;;;;;;;;;;17.80;46.00;;;;;;5032453;28;19920;-81
2022/03/27 12:30:53;;;;;;;;;;;17.90;45.30;;;;;;5032984;28;19920;-81
2022/03/27 12:33:27;;;;;;;;;;;17.90;43.70;;;;;;5015750;28;20008;-81
2022/03/27 12:36:06;;;;;;;;;;;17.90;44.60;;;;;;5031936;28;19913;-81
2022/03/27 12:38:32;;;;;;;;;;;17.90;46.10;;;;;;5015440;28;19917;-81
2022/03/27 12:40:58;;;;;;;;;;;18.00;45.40;;;;;;5032147;28;19913;-81
2022/03/27 12:43:23;;;;;;;;;;;18.10;44.90;;;;;;5031970;28;19959;-81
2022/03/27 12:45:49;;;;;;;;;;;18.00;43.00;;;;;;5015199;28;20016;-81
2022/03/27 12:48:16;;;;;;;;;;;18.10;44.30;;;;;;5015345;28;20291;-81
2022/03/27 12:50:43;;;;;;;;;;;18.10;44.40;;;;;;5036616;23;19924;-82
2022/03/27 12:53:12;;;;;;;;;;;18.10;45.90;;;;;;5051740;28;19935;-82
2022/03/27 12:55:51;;;;;;;;;;;18.20;46.10;;;;;;5068439;28;19997;-82
2022/03/27 12:58:17;;;;;;;;;;;18.20;45.40;;;;;;5051820;28;19916;-82
2022/03/27 13:00:44;;;;;;;;;;;18.10;47.30;;;;;;5051714;28;19913;-82
2022/03/27 13:03:09;;;;;;;;;;;18.10;45.50;;;;;;5035641;28;20003;-83
2022/03/27 13:05:35;;;;;;;;;;;18.10;45.40;;;;;;5051818;28;20347;-81
2022/03/27 13:08:01;;;;;;;;;;;18.10;44.60;;;;;;5052292;28;19947;-81
2022/03/27 13:10:27;;;;;;;;;;;18.00;43.10;;;;;;5035450;28;19980;-83
2022/03/27 13:12:58;;;;;;;;;;;18.00;42.00;;;;;;5052167;28;19916;-83
2022/03/27 13:15:43;;;;;;;;;;;18.00;45.00;;;;;;5051477;28;19986;-82
2022/03/27 13:18:09;;;;;;;;;;;18.10;44.40;;;;;;5051358;28;19909;-82
2022/03/27 13:20:35;;;;;;;;;;;18.10;43.90;;;;;;5051232;28;19916;-82
2022/03/27 13:23:02;;;;;;;;;;;18.20;43.10;;;;;;5051680;28;19917;-82
2022/03/27 13:25:27;;;;;;;;;;;18.20;44.70;;;;;;5051675;28;19920;-82
2022/03/27 13:27:53;;;;;;;;;;;18.20;46.00;;;;;;5034828;28;19912;-82
2022/03/27 13:30:19;;;;;;;;;;;18.30;46.40;;;;;;5034631;28;19919;-81
2022/03/27 13:32:44;;;;;;;;;;;18.30;45.80;;;;;;5034601;28;20291;-82
2022/03/27 13:35:10;;;;;;;;;;;18.30;45.10;;;;;;5051318;28;20297;-82
2022/03/27 13:37:35;;;;;;;;;;;18.30;46.60;;;;;;5034296;28;19920;-82
2022/03/27 13:40:01;;;;;;;;;;;18.30;44.80;;;;;;5034746;28;20016;-82
2022/03/27 13:45:11;;;;;;;;;;;18.20;45.30;;;;;;5051946;28;19924;-82
2022/03/27 13:47:36;;;;;;;;;;;18.30;48.00;;;;;;5034615;28;19920;-82
2022/03/27 13:50:02;;;;;;;;;;;18.30;47.40;;;;;;5034385;28;20275;-82
2022/03/27 13:52:28;;;;;;;;;;;18.20;45.20;;;;;;5051230;28;19913;-82
2022/03/27 13:54:53;;;;;;;;;;;18.20;47.00;;;;;;5034848;28;19920;-82
2022/03/27 13:57:19;;;;;;;;;;;18.20;46.10;;;;;;5034325;28;19920;-82
2022/03/27 13:59:44;;;;;;;;;;;18.20;46.90;;;;;;5050760;28;20421;-82
2022/03/27 14:02:10;;;;;;;;;;;18.10;47.40;;;;;;5034156;28;20357;-82
2022/03/27 14:04:35;;;;;;;;;;;18.10;48.40;;;;;;5034475;28;20342;-82
2022/03/27 14:07:01;;;;;;;;;;;18.00;49.50;;;;;;5034383;28;20174;-82
2022/03/27 14:09:27;;;;;;;;;;;18.00;49.10;;;;;;5050329;28;19920;-82
2022/03/27 14:11:52;;;;;;;;;;;18.00;48.40;;;;;;5034090;28;19919;-82
2022/03/27 14:14:18;;;;;;;;;;;17.90;48.80;;;;;;5050642;28;19917;-82
2022/03/27 14:16:44;;;;;;;;;;;17.90;49.90;;;;;;5050397;28;19913;-82
2022/03/27 14:19:10;;;;;;;;;;;18.00;50.60;;;;;;5050732;28;19912;-82
2022/03/27 14:21:35;;;;;;;;;;;18.00;50.40;;;;;;5050544;28;20458;-82
2022/03/27 14:24:01;;;;;;;;;;;18.00;50.40;;;;;;5050811;28;19974;-82
2022/03/27 14:26:26;;;;;;;;;;;18.00;50.40;;;;;;5051565;28;19958;-83
2022/03/27 14:28:52;;;;;;;;;;;18.00;51.00;;;;;;5053010;28;19986;-82
2022/03/27 14:31:17;;;;;;;;;;;18.00;51.70;;;;;;5035588;28;19916;-82
2022/03/27 14:33:44;;;;;;;;;;;17.90;49.50;;;;;;5035728;28;19916;-82
2022/03/27 14:36:12;;;;;;;;;;;17.90;48.40;;;;;;5051723;28;20279;-82
2022/03/27 14:38:38;;;;;;;;;;;17.90;50.80;;;;;;5052615;28;19909;-82